Rhodes, Mississippi
Current Conditions -  °F | °C
As of 6:53 PM on Saturday 20 Dec 2014 (Local Time) from KHBG Reporting Station
Overcast Overcast  
Wind Chill: 52°   Ceiling: 1900
Heat Index: 52°   Visibility: 10mi
Dew Point: 45°   Wind: 8mph
Humidity: 77%   Direction: 360°N
Pressure: 30.17"   Gusts: NA
Location:  31.3326°N, 88.8854°W
Report Text: KHBG 210053Z AUTO 36007KT 10SM OVC019 11/07 A3017 RMK AO2 SLP218 T01110072
Loading
Personal Weather Stations






























Interactive Weather Map New forecast layout! Learn more

10-Day Weather Forecast

Advertisements
Track Severe Weather on mobile